Time,TemperatureF,DewpointF,PressureIn,WindDirection,WindDirectionDegrees,WindSpeedMPH,WindSpeedGustMPH,Humidity,HourlyPrecipIn,Conditions,Clouds,dailyrainin,SoftwareType,DateUTC
2013-08-19 00:00:00,63.9,60.0,30.04,ESE,110,0.0,0.0,87,0.00,,,0.00,weatherlink.com 1.10,2013-08-19 04:00:00,
2013-08-19 00:15:00,63.3,60.0,30.04,ESE,110,0.0,0.0,88,0.00,,,0.00,weatherlink.com 1.10,2013-08-19 04:15:00,
2013-08-19 00:30:00,62.9,60.0,30.04,ESE,108,0.0,0.0,89,0.00,,,0.00,weatherlink.com 1.10,2013-08-19 04:30:00,
2013-08-19 00:45:00,62.8,60.0,30.04,ESE,108,0.0,0.0,90,0.00,,,0.00,weatherlink.com 1.10,2013-08-19 04:45:00,
2013-08-19 01:00:00,62.5,60.0,30.03,ESE,109,0.0,0.0,90,0.00,,,0.00,weatherlink.com 1.10,2013-08-19 05:00:00,
2013-08-19 01:15:00,62.1,60.0,30.03,ESE,108,0.0,0.0,91,0.00,,,0.00,weatherlink.com 1.10,2013-08-19 05:15:00,
2013-08-19 01:30:00,61.5,59.0,30.02,ESE,109,0.0,0.0,92,0.00,,,0.00,weatherlink.com 1.10,2013-08-19 05:30:00,
2013-08-19 01:45:00,60.6,59.0,30.02,ESE,108,0.0,0.0,93,0.00,,,0.00,weatherlink.com 1.10,2013-08-19 05:45:00,
2013-08-19 02:00:00,59.9,59.0,30.02,ESE,108,0.0,0.0,95,0.00,,,0.00,weatherlink.com 1.10,2013-08-19 06:00:00,
2013-08-19 02:15:00,59.8,59.0,30.02,ESE,108,0.0,0.0,96,0.00,,,0.00,weatherlink.com 1.10,2013-08-19 06:15:00,
2013-08-19 02:30:00,59.7,59.0,30.02,ESE,110,0.0,0.0,96,0.00,,,0.00,weatherlink.com 1.10,2013-08-19 06:30:00,
2013-08-19 02:45:00,59.1,58.0,30.01,ESE,110,0.0,0.0,96,0.00,,,0.00,weatherlink.com 1.10,2013-08-19 06:45:00,
2013-08-19 03:01:00,58.5,57.0,30.01,ESE,110,0.0,0.0,96,0.00,,,0.00,weatherlink.com 1.10,2013-08-19 07:01:00,
2013-08-19 03:16:00,58.1,57.0,30.01,ESE,110,0.0,0.0,97,0.00,,,0.00,weatherlink.com 1.10,2013-08-19 07:16:00,
2013-08-19 03:31:00,58.0,57.0,30.01,ESE,110,0.0,0.0,97,0.00,,,0.00,weatherlink.com 1.10,2013-08-19 07:31:00,
2013-08-19 03:46:00,57.8,57.0,30.01,ESE,110,0.0,0.0,97,0.00,,,0.00,weatherlink.com 1.10,2013-08-19 07:46:00,
2013-08-19 04:01:00,57.9,57.0,30.01,ESE,110,0.0,0.0,98,0.00,,,0.00,weatherlink.com 1.10,2013-08-19 08:01:00,
2013-08-19 04:16:00,58.1,58.0,30.00,ESE,110,0.0,0.0,98,0.00,,,0.00,weatherlink.com 1.10,2013-08-19 08:16:00,
2013-08-19 04:31:00,58.4,58.0,30.00,ESE,110,0.0,0.0,97,0.00,,,0.00,weatherlink.com 1.10,2013-08-19 08:31:00,
2013-08-19 04:46:00,58.2,57.0,30.00,ESE,110,0.0,0.0,96,0.00,,,0.00,weatherlink.com 1.10,2013-08-19 08:46:00,
2013-08-19 05:01:00,57.8,57.0,30.00,ESE,110,0.0,0.0,97,0.00,,,0.00,weatherlink.com 1.10,2013-08-19 09:01:00,
2013-08-19 05:16:00,57.8,57.0,30.00,ESE,110,0.0,0.0,97,0.00,,,0.00,weatherlink.com 1.10,2013-08-19 09:16:00,
2013-08-19 05:31:00,57.8,57.0,30.00,ESE,110,0.0,0.0,97,0.00,,,0.00,weatherlink.com 1.10,2013-08-19 09:31:00,
2013-08-19 05:46:00,57.2,56.0,30.00,ESE,110,0.0,0.0,96,0.00,,,0.00,weatherlink.com 1.10,2013-08-19 09:46:00,
2013-08-19 06:01:00,57.4,57.0,30.00,ESE,108,0.0,0.0,98,0.00,,,0.00,weatherlink.com 1.10,2013-08-19 10:01:00,
2013-08-19 06:16:00,58.5,57.0,30.00,ESE,109,0.0,0.0,95,0.00,,,0.00,weatherlink.com 1.10,2013-08-19 10:16:00,
2013-08-19 06:31:00,58.8,57.0,30.00,ESE,108,0.0,0.0,95,0.00,,,0.00,weatherlink.com 1.10,2013-08-19 10:31:00,
2013-08-19 06:46:00,58.3,57.0,30.00,ESE,113,0.0,0.0,95,0.00,,,0.00,weatherlink.com 1.10,2013-08-19 10:46:00,
2013-08-19 07:01:00,58.0,57.0,30.00,ESE,113,0.0,0.0,96,0.00,,,0.00,weatherlink.com 1.10,2013-08-19 11:01:00,
2013-08-19 07:16:00,58.6,58.0,30.00,ESE,113,0.0,0.0,97,0.00,,,0.00,weatherlink.com 1.10,2013-08-19 11:16:00,
2013-08-19 07:31:00,59.3,58.0,30.00,ESE,111,0.0,0.0,96,0.00,,,0.00,weatherlink.com 1.10,2013-08-19 11:31:00,
2013-08-19 07:46:00,60.0,59.0,30.00,ESE,112,0.0,0.0,95,0.00,,,0.00,weatherlink.com 1.10,2013-08-19 11:46:00,
2013-08-19 08:01:00,61.8,59.0,30.00,NNE,30,0.0,1.0,91,0.00,,,0.00,weatherlink.com 1.10,2013-08-19 12:01:00,
2013-08-19 08:16:00,63.1,60.0,30.00,ESE,120,0.0,1.0,89,0.00,,,0.00,weatherlink.com 1.10,2013-08-19 12:16:00,
2013-08-19 08:31:00,64.1,60.0,30.00,ESE,120,0.0,0.0,87,0.00,,,0.00,weatherlink.com 1.10,2013-08-19 12:31:00,
2013-08-19 08:46:00,65.2,60.0,29.99,ESE,120,0.0,0.0,84,0.00,,,0.00,weatherlink.com 1.10,2013-08-19 12:46:00,
2013-08-19 09:01:00,66.0,61.0,29.99,East,96,1.0,1.0,83,0.00,,,0.00,weatherlink.com 1.10,2013-08-19 13:01:00,
2013-08-19 09:16:00,66.7,62.0,29.98,ESE,116,0.0,1.0,84,0.00,,,0.00,weatherlink.com 1.10,2013-08-19 13:16:00,
2013-08-19 09:31:00,67.9,61.0,29.98,North,1,0.0,1.0,79,0.00,,,0.00,weatherlink.com 1.10,2013-08-19 13:31:00,
2013-08-19 09:46:00,68.7,61.0,29.99,NNE,16,0.0,2.0,77,0.00,,,0.00,weatherlink.com 1.10,2013-08-19 13:46:00,
2013-08-19 10:01:00,69.9,63.0,29.98,WNW,300,1.0,2.0,78,0.00,,,0.00,weatherlink.com 1.10,2013-08-19 14:01:00,
2013-08-19 10:16:00,71.0,62.0,29.98,NNW,328,0.0,2.0,74,0.00,,,0.00,weatherlink.com 1.10,2013-08-19 14:16:00,
2013-08-19 10:31:00,71.3,63.0,29.98,NNW,339,0.0,2.0,74,0.00,,,0.00,weatherlink.com 1.10,2013-08-19 14:31:00,
2013-08-19 10:46:00,71.7,62.0,29.98,WNW,300,0.0,2.0,72,0.00,,,0.00,weatherlink.com 1.10,2013-08-19 14:46:00,
2013-08-19 11:01:00,72.0,63.0,29.98,NNW,338,0.0,2.0,72,0.00,,,0.00,weatherlink.com 1.10,2013-08-19 15:01:00,
2013-08-19 11:16:00,72.1,63.0,29.98,WNW,302,0.0,2.0,73,0.00,,,0.00,weatherlink.com 1.10,2013-08-19 15:16:00,
2013-08-19 11:31:00,72.7,64.0,29.98,NW,318,0.0,1.0,74,0.00,,,0.00,weatherlink.com 1.10,2013-08-19 15:31:00,
2013-08-19 11:46:00,73.0,63.0,29.98,ENE,64,0.0,1.0,72,0.00,,,0.00,weatherlink.com 1.10,2013-08-19 15:46:00,
2013-08-19 12:01:00,73.1,64.0,29.97,SE,139,1.0,1.0,74,0.00,,,0.00,weatherlink.com 1.10,2013-08-19 16:01:00,
2013-08-19 12:16:00,73.4,65.0,29.96,South,184,0.0,2.0,74,0.00,,,0.00,weatherlink.com 1.10,2013-08-19 16:16:00,
2013-08-19 12:32:00,74.3,66.0,29.96,SE,146,1.0,1.0,74,0.00,,,0.00,weatherlink.com 1.10,2013-08-19 16:32:00,
2013-08-19 12:47:00,75.3,64.0,29.96,SSE,152,0.0,4.0,68,0.00,,,0.00,weatherlink.com 1.10,2013-08-19 16:47:00,
2013-08-19 13:02:00,76.5,64.0,29.95,SSE,158,0.0,2.0,66,0.00,,,0.00,weatherlink.com 1.10,2013-08-19 17:02:00,
2013-08-19 13:17:00,77.5,64.0,29.95,SSE,163,0.0,3.0,64,0.00,,,0.00,weatherlink.com 1.10,2013-08-19 17:17:00,
2013-08-19 13:32:00,78.1,65.0,29.95,SE,128,0.0,1.0,64,0.00,,,0.00,weatherlink.com 1.10,2013-08-19 17:32:00,
2013-08-19 13:47:00,77.8,65.0,29.94,ESE,103,0.0,2.0,64,0.00,,,0.00,weatherlink.com 1.10,2013-08-19 17:47:00,
2013-08-19 14:02:00,77.3,62.0,29.93,North,6,1.0,1.0,59,0.00,,,0.00,weatherlink.com 1.10,2013-08-19 18:02:00,
2013-08-19 14:17:00,77.5,63.0,29.93,North,11,0.0,1.0,62,0.00,,,0.00,weatherlink.com 1.10,2013-08-19 18:17:00,
2013-08-19 14:32:00,78.2,64.0,29.93,NNW,344,1.0,1.0,62,0.00,,,0.00,weatherlink.com 1.10,2013-08-19 18:32:00,
2013-08-19 14:47:00,78.2,65.0,29.92,SE,131,0.0,1.0,63,0.00,,,0.00,weatherlink.com 1.10,2013-08-19 18:47:00,
2013-08-19 15:02:00,77.6,63.0,29.92,ESE,115,0.0,3.0,60,0.00,,,0.00,weatherlink.com 1.10,2013-08-19 19:02:00,
2013-08-19 15:17:00,77.2,63.0,29.92,SE,130,0.0,2.0,62,0.00,,,0.00,weatherlink.com 1.10,2013-08-19 19:17:00,
2013-08-19 15:32:00,77.1,64.0,29.92,East,85,0.0,3.0,65,0.00,,,0.00,weatherlink.com 1.10,2013-08-19 19:32:00,
2013-08-19 15:48:00,76.5,63.0,29.92,NE,54,0.0,2.0,63,0.00,,,0.00,weatherlink.com 1.10,2013-08-19 19:48:00,
2013-08-19 16:02:00,76.8,64.0,29.92,East,92,1.0,2.0,65,0.00,,,0.00,weatherlink.com 1.10,2013-08-19 20:02:00,
2013-08-19 16:17:00,76.7,64.0,29.92,South,188,1.0,3.0,66,0.00,,,0.00,weatherlink.com 1.10,2013-08-19 20:17:00,
2013-08-19 16:32:00,76.6,64.0,29.91,ESE,104,0.0,1.0,66,0.00,,,0.00,weatherlink.com 1.10,2013-08-19 20:32:00,
2013-08-19 16:47:00,76.6,63.0,29.91,East,92,0.0,2.0,63,0.00,,,0.00,weatherlink.com 1.10,2013-08-19 20:47:00,
2013-08-19 17:02:00,76.8,64.0,29.91,SSW,210,2.0,2.0,64,0.00,,,0.00,weatherlink.com 1.10,2013-08-19 21:02:00,
2013-08-19 17:17:00,76.6,63.0,29.90,East,94,0.0,3.0,62,0.00,,,0.00,weatherlink.com 1.10,2013-08-19 21:17:00,
2013-08-19 17:32:00,76.3,62.0,29.91,SE,134,0.0,1.0,62,0.00,,,0.00,weatherlink.com 1.10,2013-08-19 21:32:00,
2013-08-19 17:47:00,76.1,63.0,29.91,NW,316,0.0,1.0,64,0.00,,,0.00,weatherlink.com 1.10,2013-08-19 21:47:00,
2013-08-19 18:02:00,75.5,63.0,29.91,East,98,0.0,1.0,65,0.00,,,0.00,weatherlink.com 1.10,2013-08-19 22:02:00,
2013-08-19 18:17:00,74.5,64.0,29.92,East,99,0.0,1.0,70,0.00,,,0.00,weatherlink.com 1.10,2013-08-19 22:17:00,
2013-08-19 18:32:00,73.7,64.0,29.92,East,98,0.0,1.0,72,0.00,,,0.00,weatherlink.com 1.10,2013-08-19 22:32:00,
2013-08-19 18:47:00,72.4,65.0,29.92,East,99,0.0,0.0,77,0.00,,,0.00,weatherlink.com 1.10,2013-08-19 22:47:00,
2013-08-19 19:02:00,71.2,65.0,29.93,East,99,0.0,0.0,80,0.00,,,0.00,weatherlink.com 1.10,2013-08-19 23:02:00,
2013-08-19 19:17:00,70.1,64.0,29.93,East,99,0.0,0.0,81,0.00,,,0.00,weatherlink.com 1.10,2013-08-19 23:17:00,
2013-08-19 19:32:00,69.4,63.0,29.93,East,98,0.0,0.0,81,0.00,,,0.00,weatherlink.com 1.10,2013-08-19 23:32:00,
2013-08-19 19:47:00,68.8,63.0,29.93,East,99,0.0,0.0,81,0.00,,,0.00,weatherlink.com 1.10,2013-08-19 23:47:00,
2013-08-19 20:02:00,68.7,62.0,29.93,East,98,0.0,0.0,80,0.00,,,0.00,weatherlink.com 1.10,2013-08-20 00:02:00,
2013-08-19 20:17:00,69.7,62.0,29.93,NNW,335,0.0,0.0,77,0.00,,,0.00,weatherlink.com 1.10,2013-08-20 00:17:00,
2013-08-19 20:32:00,70.1,62.0,29.93,NNW,335,0.0,0.0,75,0.00,,,0.00,weatherlink.com 1.10,2013-08-20 00:32:00,
2013-08-19 20:47:00,70.4,61.0,29.93,NNW,334,0.0,0.0,73,0.00,,,0.00,weatherlink.com 1.10,2013-08-20 00:47:00,
2013-08-19 21:02:00,70.3,62.0,29.94,NNW,334,0.0,0.0,75,0.00,,,0.00,weatherlink.com 1.10,2013-08-20 01:02:00,
2013-08-19 21:17:00,69.0,62.0,29.94,NNW,334,0.0,0.0,77,0.00,,,0.00,weatherlink.com 1.10,2013-08-20 01:17:00,
2013-08-19 21:32:00,68.4,61.0,29.94,NNW,335,0.0,0.0,78,0.00,,,0.00,weatherlink.com 1.10,2013-08-20 01:32:00,
2013-08-19 21:47:00,68.6,62.0,29.94,NNW,334,0.0,0.0,78,0.00,,,0.00,weatherlink.com 1.10,2013-08-20 01:47:00,
2013-08-19 22:02:00,68.7,61.0,29.94,NNW,335,0.0,0.0,77,0.00,,,0.00,weatherlink.com 1.10,2013-08-20 02:02:00,
2013-08-19 22:17:00,68.4,62.0,29.94,NNW,334,0.0,0.0,79,0.00,,,0.00,weatherlink.com 1.10,2013-08-20 02:17:00,
2013-08-19 22:32:00,67.8,61.0,29.94,NNW,335,0.0,0.0,80,0.00,,,0.00,weatherlink.com 1.10,2013-08-20 02:32:00,
2013-08-19 22:47:00,68.2,61.0,29.94,NNW,335,0.0,0.0,79,0.00,,,0.00,weatherlink.com 1.10,2013-08-20 02:47:00,
2013-08-19 23:02:00,68.3,62.0,29.94,NNW,334,0.0,0.0,79,0.00,,,0.00,weatherlink.com 1.10,2013-08-20 03:02:00,
2013-08-19 23:17:00,68.1,62.0,29.94,NNW,335,0.0,0.0,81,0.00,,,0.00,weatherlink.com 1.10,2013-08-20 03:17:00,
2013-08-19 23:32:00,67.7,62.0,29.94,NNW,335,0.0,0.0,81,0.00,,,0.00,weatherlink.com 1.10,2013-08-20 03:32:00,
2013-08-19 23:48:00,67.1,62.0,29.94,NNW,335,0.0,0.0,83,0.00,,,0.00,weatherlink.com 1.10,2013-08-20 03:48:00,